Time;durP1;ratioP1;P1;durP2;ratioP2;P2;SDS_P1;SDS_P2;PMS_P1;PMS_P2;Temp;Humidity;BMP_temperature;BMP_pressure;BME280_temperature;BME280_humidity;BME280_pressure;Samples;Min_cycle;Max_cycle;Signal;HPM_P1;HPM_P2
2022/05/01 00:00:09;;;;;;;;;11.40;10.20;;;;;14.65;57.71;99573.56;5049997;28;8842;-75
2022/05/01 00:02:59;;;;;;;;;7.00;6.80;;;;;14.63;57.51;99565.75;5008013;28;8859;-75
2022/05/01 00:05:29;;;;;;;;;9.20;9.20;;;;;14.64;56.99;99561.34;5050156;28;8871;-76
2022/05/01 00:07:59;;;;;;;;;9.00;7.20;;;;;14.51;56.84;99558.03;5065668;28;8855;-77
2022/05/01 00:10:28;;;;;;;;;13.80;12.80;;;;;14.60;56.49;99556.13;5031572;28;8881;-78
2022/05/01 00:12:56;;;;;;;;;10.60;10.40;;;;;14.57;56.29;99555.31;5070604;28;8867;-76
2022/05/01 00:15:25;;;;;;;;;8.60;6.40;;;;;14.55;56.36;99552.69;5018542;28;8844;-75
2022/05/01 00:17:54;;;;;;;;;6.60;6.60;;;;;14.51;55.99;99542.28;5027568;28;8858;-76
2022/05/01 00:20:24;;;;;;;;;9.20;9.20;;;;;14.45;56.09;99543.25;5027725;28;8846;-77
2022/05/01 00:22:52;;;;;;;;;11.00;9.20;;;;;14.43;56.07;99540.63;5027888;28;8900;-77
2022/05/01 00:25:21;;;;;;;;;9.40;6.60;;;;;14.46;55.98;99544.09;4994999;28;8850;-75
2022/05/01 00:27:50;;;;;;;;;8.60;6.00;;;;;14.42;56.37;99540.66;4996517;28;8861;-77
2022/05/01 00:30:18;;;;;;;;;7.00;5.60;;;;;14.41;56.09;99538.94;4995601;28;8838;-75
2022/05/01 00:38:21;;;;;;;;;6.80;6.60;;;;;14.43;55.86;99535.38;5010802;28;8841;-76
2022/05/01 00:40:49;;;;;;;;;10.00;8.40;;;;;14.48;56.15;99540.59;5027309;28;8876;-75
2022/05/01 00:43:18;;;;;;;;;7.20;7.20;;;;;14.38;55.94;99536.34;5007112;28;8852;-76
2022/05/01 00:45:47;;;;;;;;;6.00;6.00;;;;;14.42;55.97;99535.41;5007747;28;8870;-76
2022/05/01 00:48:16;;;;;;;;;8.80;7.40;;;;;14.33;56.11;99525.06;5015523;28;8862;-76
2022/05/01 00:50:46;;;;;;;;;6.80;6.80;;;;;14.34;55.93;99530.28;5031800;28;8851;-75
2022/05/01 00:53:15;;;;;;;;;8.20;8.00;;;;;14.36;55.66;99530.28;5049799;28;8868;-76
2022/05/01 00:55:44;;;;;;;;;9.60;7.40;;;;;14.32;56.24;99526.81;5048311;28;8921;-76
2022/05/01 00:58:13;;;;;;;;;7.60;7.60;;;;;14.32;56.28;99531.22;5032614;28;8981;-76
2022/05/01 01:00:43;;;;;;;;;6.60;5.60;;;;;14.32;56.10;99534.69;5064612;28;8866;-76
2022/05/01 01:03:12;;;;;;;;;8.80;7.60;;;;;14.29;56.17;99531.25;5049579;28;8838;-76
2022/05/01 01:05:40;;;;;;;;;8.80;5.40;;;;;14.33;55.98;99532.94;5064723;28;8855;-77
2022/05/01 01:08:10;;;;;;;;;7.20;7.00;;;;;14.34;55.80;99532.06;5064549;28;8847;-74
2022/05/01 01:10:39;;;;;;;;;6.60;6.60;;;;;14.33;55.94;99528.56;5009985;28;8830;-76
2022/05/01 01:13:08;;;;;;;;;7.00;7.00;;;;;14.38;56.10;99537.22;4994464;28;8850;-75
2022/05/01 01:15:37;;;;;;;;;6.20;6.20;;;;;14.29;56.43;99532.16;5032311;28;8924;-76
2022/05/01 01:18:06;;;;;;;;;8.20;7.00;;;;;14.28;56.11;99533.03;5014097;28;8847;-75
2022/05/01 01:20:39;;;;;;;;;7.40;7.40;;;;;14.23;56.62;99530.47;5029836;28;8864;-76
2022/05/01 01:23:08;;;;;;;;;9.60;7.60;;;;;14.16;57.14;99520.13;4982378;28;8828;-79
2022/05/01 01:25:36;;;;;;;;;10.40;9.80;;;;;14.04;57.51;99516.78;5013767;28;9609;-75
2022/05/01 01:28:08;;;;;;;;;10.60;9.80;;;;;13.99;58.14;99523.00;5046778;28;8863;-76
2022/05/01 01:33:25;;;;;;;;;10.00;9.20;;;;;13.81;58.67;99511.88;5029953;28;8844;-75
2022/05/01 01:35:57;;;;;;;;;11.20;10.20;;;;;13.79;58.91;99516.25;5046416;28;8835;-75
2022/05/01 01:38:26;;;;;;;;;12.80;11.80;;;;;13.73;59.07;99515.50;5029713;28;8859;-77
2022/05/01 01:40:56;;;;;;;;;8.20;7.80;;;;;13.74;59.00;99519.84;5029787;28;8953;-76
2022/05/01 01:43:27;;;;;;;;;11.60;10.60;;;;;13.79;58.74;99523.25;5048986;28;8830;-78
2022/05/01 01:45:56;;;;;;;;;8.00;8.00;;;;;13.84;58.49;99518.84;5048899;28;8864;-74
2022/05/01 01:48:25;;;;;;;;;9.80;8.00;;;;;13.92;57.72;99519.56;5064518;28;8843;-75
2022/05/01 01:51:00;;;;;;;;;9.40;8.20;;;;;14.00;57.65;99519.47;5030446;28;8827;-76
2022/05/01 01:53:29;;;;;;;;;7.80;7.80;;;;;14.03;57.39;99519.44;5062013;28;8862;-75
2022/05/01 01:55:58;;;;;;;;;8.20;8.20;;;;;14.02;57.47;99515.91;5068613;28;8851;-78
2022/05/01 01:58:28;;;;;;;;;9.40;9.40;;;;;14.05;57.45;99517.66;5050784;28;8960;-76
2022/05/01 02:00:59;;;;;;;;;9.00;9.00;;;;;14.02;58.09;99521.16;5068477;28;8878;-76
2022/05/01 02:03:28;;;;;;;;;10.20;9.40;;;;;14.03;57.88;99519.44;5068721;28;9622;-77
2022/05/01 02:05:58;;;;;;;;;13.20;10.40;;;;;13.99;58.07;99529.09;5084048;28;8851;-76
2022/05/01 02:08:27;;;;;;;;;10.00;7.80;;;;;14.01;57.40;99526.47;5080582;28;10013;-74
2022/05/01 02:10:56;;;;;;;;;11.40;10.00;;;;;14.01;57.79;99523.84;5047189;28;8847;-75
2022/05/01 02:13:25;;;;;;;;;5.20;5.20;;;;;13.95;57.88;99523.91;5048739;28;8865;-75
2022/05/01 02:15:53;;;;;;;;;11.00;10.40;;;;;13.90;57.72;99523.13;5047439;28;8865;-74
2022/05/01 02:18:22;;;;;;;;;10.00;9.60;;;;;13.86;58.09;99519.69;4997309;28;8842;-75
2022/05/01 02:23:37;;;;;;;;;8.20;8.20;;;;;13.89;57.88;99514.38;5068061;28;8849;-77
2022/05/01 02:26:06;;;;;;;;;10.40;10.40;;;;;13.92;57.49;99514.34;5051218;28;8871;-78
2022/05/01 02:28:36;;;;;;;;;10.20;9.40;;;;;13.90;57.53;99508.25;5033489;28;8858;-75
2022/05/01 02:31:04;;;;;;;;;9.60;8.80;;;;;13.92;57.75;99516.97;5050847;28;8831;-76
2022/05/01 02:33:33;;;;;;;;;11.40;10.00;;;;;13.92;57.97;99510.84;5050744;28;8904;-76
2022/05/01 02:36:05;;;;;;;;;9.80;9.80;;;;;13.88;58.17;99512.66;5052788;28;8969;-76
2022/05/01 02:38:34;;;;;;;;;9.40;9.40;;;;;13.91;57.34;99514.34;5051037;28;8881;-76
2022/05/01 02:41:04;;;;;;;;;10.80;7.80;;;;;13.93;57.57;99513.47;5052123;28;8882;-76
2022/05/01 02:43:33;;;;;;;;;13.80;10.40;;;;;13.97;58.06;99516.88;5051809;28;8854;-77
2022/05/01 02:46:01;;;;;;;;;11.40;9.40;;;;;14.02;57.53;99510.69;5052154;28;8850;-77
2022/05/01 02:48:30;;;;;;;;;11.80;9.80;;;;;13.95;57.74;99502.94;5052337;28;9577;-74
2022/05/01 02:50:58;;;;;;;;;11.40;10.40;;;;;13.92;58.09;99503.84;5050653;28;8942;-77
2022/05/01 02:53:27;;;;;;;;;12.40;11.40;;;;;13.96;57.77;99499.44;5052046;28;8948;-76
2022/05/01 02:55:56;;;;;;;;;11.80;11.20;;;;;13.88;57.82;99498.69;5050585;28;8885;-74
2022/05/01 02:58:26;;;;;;;;;11.20;10.80;;;;;13.78;58.09;99484.81;5066940;28;8853;-76
2022/05/01 03:00:54;;;;;;;;;15.80;15.60;;;;;13.72;58.40;99491.03;5051742;28;8928;-76
2022/05/01 03:03:24;;;;;;;;;16.00;16.00;;;;;13.67;58.56;99499.84;5050231;28;8854;-76
2022/05/01 03:05:53;;;;;;;;;15.20;12.20;;;;;13.60;58.67;99486.81;5066728;28;9600;-75
2022/05/01 03:08:23;;;;;;;;;12.40;12.40;;;;;13.55;58.81;99493.88;5050091;28;8893;-74
2022/05/01 03:10:53;;;;;;;;;17.20;16.40;;;;;13.54;59.10;99489.53;5051684;28;8843;-76
2022/05/01 03:13:22;;;;;;;;;13.20;13.20;;;;;13.49;59.04;99488.72;5016310;28;8888;-76
2022/05/01 03:15:52;;;;;;;;;10.40;10.20;;;;;13.43;59.29;99494.06;5050056;28;8850;-75
2022/05/01 03:23:53;;;;;;;;;9.80;9.00;;;;;13.28;58.99;99484.59;5033654;28;8886;-77
2022/05/01 03:26:22;;;;;;;;;8.40;8.40;;;;;13.29;59.68;99493.31;5051466;28;8862;-77
2022/05/01 03:28:50;;;;;;;;;12.40;11.00;;;;;13.30;58.89;99495.97;5049874;28;8855;-77
2022/05/01 03:31:20;;;;;;;;;9.80;9.00;;;;;13.41;59.19;99493.22;5050044;28;8866;-76
2022/05/01 03:33:49;;;;;;;;;10.00;9.00;;;;;13.49;58.13;99495.72;5049891;28;8858;-75
2022/05/01 03:36:18;;;;;;;;;9.80;9.80;;;;;13.41;58.40;99496.69;5049828;28;8854;-75
2022/05/01 03:38:46;;;;;;;;;10.40;9.60;;;;;13.47;58.94;99500.13;5015907;28;8894;-77
2022/05/01 03:41:17;;;;;;;;;15.80;14.40;;;;;13.42;58.72;99506.28;5049589;28;8889;-76
2022/05/01 03:43:45;;;;;;;;;15.00;10.00;;;;;13.53;58.28;99510.50;5015505;28;8885;-77
2022/05/01 03:46:14;;;;;;;;;7.00;6.80;;;;;13.55;58.08;99499.13;5054497;28;8839;-76
2022/05/01 03:48:44;;;;;;;;;7.80;7.40;;;;;13.55;58.57;99508.75;5032412;28;8874;-77
2022/05/01 03:51:13;;;;;;;;;8.20;8.20;;;;;13.62;57.87;99506.00;5033288;28;8961;-74
2022/05/01 03:53:42;;;;;;;;;10.80;9.80;;;;;13.71;58.09;99510.28;5051186;28;8862;-75
2022/05/01 03:56:11;;;;;;;;;12.60;9.80;;;;;13.73;57.47;99516.34;5051126;28;8870;-75
2022/05/01 03:58:39;;;;;;;;;8.40;8.40;;;;;13.79;57.35;99516.25;5049131;28;8842;-75
2022/05/01 04:01:08;;;;;;;;;9.60;8.60;;;;;13.86;57.50;99511.81;5049210;28;8873;-76
2022/05/01 04:03:37;;;;;;;;;8.00;8.00;;;;;13.91;57.60;99515.22;5051009;28;8839;-75
2022/05/01 04:06:07;;;;;;;;;11.80;10.80;;;;;14.02;57.34;99512.44;5049283;28;8947;-75
2022/05/01 04:08:36;;;;;;;;;8.80;8.60;;;;;14.06;57.10;99521.97;5032701;28;8977;-76
2022/05/01 04:11:05;;;;;;;;;10.00;9.40;;;;;14.09;56.73;99531.59;5049053;28;8865;-77
2022/05/01 04:13:35;;;;;;;;;15.40;14.80;;;;;14.17;56.92;99527.06;5049000;28;8834;-75
2022/05/01 04:16:04;;;;;;;;;11.60;10.60;;;;;14.19;56.23;99520.03;5048823;28;8823;-76
2022/05/01 04:18:34;;;;;;;;;9.20;8.00;;;;;14.25;56.35;99527.81;5050098;28;8858;-74
2022/05/01 04:21:03;;;;;;;;;10.20;9.80;;;;;14.26;56.10;99529.56;5048736;28;8966;-77
2022/05/01 04:23:33;;;;;;;;;7.20;7.20;;;;;14.33;56.03;99531.19;5049012;28;8867;-77
2022/05/01 04:26:03;;;;;;;;;8.80;7.80;;;;;14.33;55.88;99535.56;5049587;28;8915;-78
2022/05/01 04:28:31;;;;;;;;;10.00;8.20;;;;;14.35;55.96;99525.94;5049405;28;8870;-75
2022/05/01 04:31:00;;;;;;;;;11.00;9.40;;;;;14.39;55.60;99525.84;5048518;28;8888;-76
2022/05/01 04:33:29;;;;;;;;;9.80;9.00;;;;;14.35;55.96;99524.16;4999229;28;8855;-76
2022/05/01 04:35:57;;;;;;;;;8.00;6.00;;;;;14.38;55.89;99523.25;5047376;28;8918;-76
2022/05/01 04:38:26;;;;;;;;;8.80;8.60;;;;;14.35;56.13;99521.53;5049960;28;8858;-76
2022/05/01 04:40:58;;;;;;;;;7.00;5.80;;;;;14.38;55.85;99518.00;5050035;28;8890;-75
2022/05/01 04:43:28;;;;;;;;;7.80;7.80;;;;;14.39;55.56;99525.00;5048811;28;8959;-75
2022/05/01 04:45:58;;;;;;;;;5.80;5.40;;;;;14.49;55.20;99526.56;5030326;28;8866;-76
2022/05/01 04:48:27;;;;;;;;;5.00;5.00;;;;;14.51;54.96;99527.38;5064645;28;8881;-76
2022/05/01 04:50:56;;;;;;;;;6.80;6.80;;;;;14.56;54.33;99532.56;5048071;28;8857;-75
2022/05/01 04:53:24;;;;;;;;;9.00;9.00;;;;;14.53;54.97;99517.72;5014612;28;8846;-75
2022/05/01 04:55:54;;;;;;;;;10.80;10.80;;;;;14.55;54.49;99522.97;5031614;28;8956;-76
2022/05/01 04:58:24;;;;;;;;;9.80;9.80;;;;;14.67;54.76;99527.16;5047780;28;8870;-75
2022/05/01 05:00:53;;;;;;;;;6.20;6.00;;;;;14.66;54.34;99536.78;5049545;28;8843;-76
2022/05/01 05:03:21;;;;;;;;;8.40;7.00;;;;;14.73;54.47;99530.56;5047996;28;8877;-75
2022/05/01 05:05:50;;;;;;;;;9.00;9.00;;;;;14.72;54.61;99530.56;5049148;28;8847;-75
2022/05/01 05:11:05;;;;;;;;;8.80;7.40;;;;;14.90;54.15;99538.13;5064484;28;8927;-78
2022/05/01 05:13:36;;;;;;;;;7.00;6.60;;;;;14.98;54.18;99537.97;5047884;28;8831;-76
2022/05/01 05:16:12;;;;;;;;;8.20;6.60;;;;;15.05;53.68;99534.34;5029958;28;8859;-75
2022/05/01 05:18:41;;;;;;;;;12.60;12.60;;;;;15.15;53.33;99538.53;5047188;28;8936;-75
2022/05/01 05:21:10;;;;;;;;;7.00;6.40;;;;;15.23;53.10;99529.63;5064110;28;8854;-78
2022/05/01 05:23:38;;;;;;;;;6.20;6.20;;;;;15.33;52.99;99525.91;5014037;28;8883;-76
2022/05/01 05:26:08;;;;;;;;;4.00;3.20;;;;;15.34;52.90;99535.53;5048990;28;8839;-76
2022/05/01 05:28:38;;;;;;;;;10.40;9.60;;;;;15.32;52.56;99532.94;5064039;28;8875;-75
2022/05/01 05:31:07;;;;;;;;;15.00;13.00;;;;;15.37;52.73;99538.97;5049252;28;8854;-77
2022/05/01 05:33:36;;;;;;;;;8.20;8.20;;;;;15.39;52.59;99529.28;5047474;28;8838;-76
2022/05/01 05:36:05;;;;;;;;;8.00;8.00;;;;;15.39;52.67;99524.03;5063064;28;8838;-76
2022/05/01 05:38:33;;;;;;;;;5.20;5.20;;;;;15.41;52.54;99516.13;5047173;28;8866;-76
2022/05/01 05:41:02;;;;;;;;;8.80;8.80;;;;;15.40;52.70;99525.75;5048909;28;9004;-76
2022/05/01 05:43:30;;;;;;;;;10.80;9.20;;;;;15.41;52.54;99526.63;5047317;28;9658;-76
2022/05/01 05:46:00;;;;;;;;;10.20;8.00;;;;;15.34;53.00;99520.63;5047932;28;8953;-74
2022/05/01 05:48:29;;;;;;;;;10.00;8.80;;;;;15.37;53.09;99517.94;5048239;28;8858;-75
2022/05/01 05:50:58;;;;;;;;;13.20;10.80;;;;;15.40;53.07;99528.38;5048422;28;8874;-76
2022/05/01 05:53:26;;;;;;;;;9.00;8.40;;;;;15.40;53.07;99515.25;5046973;28;8850;-76
2022/05/01 05:55:56;;;;;;;;;15.20;13.00;;;;;15.50;53.04;99523.81;5046407;28;8973;-77
2022/05/01 05:58:24;;;;;;;;;10.20;10.20;;;;;15.40;53.49;99519.63;5048387;28;8920;-76
2022/05/01 06:00:53;;;;;;;;;9.80;9.80;;;;;15.49;53.46;99523.84;5048059;28;8917;-76
2022/05/01 06:03:23;;;;;;;;;10.60;8.40;;;;;15.61;53.19;99520.94;5048483;28;8854;-76
2022/05/01 06:05:52;;;;;;;;;8.60;8.00;;;;;15.67;52.84;99526.09;5048433;28;8862;-76
2022/05/01 06:08:20;;;;;;;;;11.20;9.40;;;;;15.79;52.62;99520.56;5047903;28;8855;-75
2022/05/01 06:10:49;;;;;;;;;7.80;7.80;;;;;15.78;52.94;99528.50;5046882;28;8888;-77
2022/05/01 06:13:17;;;;;;;;;10.40;8.80;;;;;15.76;52.61;99531.19;5048091;28;8953;-75
2022/05/01 06:15:46;;;;;;;;;7.80;7.80;;;;;15.83;52.48;99533.66;5047104;28;8862;-76
2022/05/01 06:18:15;;;;;;;;;11.00;7.80;;;;;15.98;51.99;99534.19;5026712;28;8841;-77
2022/05/01 06:20:45;;;;;;;;;7.20;7.20;;;;;16.02;51.77;99534.13;5026162;28;8841;-77
2022/05/01 06:23:14;;;;;;;;;8.00;8.00;;;;;16.08;51.49;99526.94;5026556;28;8979;-76
2022/05/01 06:25:44;;;;;;;;;6.60;6.00;;;;;16.02;51.63;99524.44;5026275;28;8950;-77
2022/05/01 06:28:13;;;;;;;;;6.40;6.20;;;;;15.96;51.60;99520.19;5026558;28;8958;-76
2022/05/01 06:30:43;;;;;;;;;7.20;7.20;;;;;16.00;51.39;99533.28;5026383;28;8873;-76
2022/05/01 06:33:14;;;;;;;;;5.80;5.80;;;;;16.14;50.93;99525.94;5025737;28;8837;-75
2022/05/01 06:35:45;;;;;;;;;8.60;8.00;;;;;16.21;50.89;99538.03;4976438;28;8879;-79
2022/05/01 06:38:14;;;;;;;;;9.00;9.00;;;;;16.15;50.27;99528.53;5009077;28;8845;-76
2022/05/01 06:40:43;;;;;;;;;5.00;5.00;;;;;16.30;49.98;99540.44;5025334;28;8869;-75
2022/05/01 06:43:13;;;;;;;;;8.20;8.20;;;;;16.35;49.57;99519.28;5025706;28;8861;-75
2022/05/01 06:45:42;;;;;;;;;8.00;7.00;;;;;16.38;49.43;99522.69;5025498;28;8880;-75
2022/05/01 06:48:16;;;;;;;;;5.80;5.20;;;;;16.47;49.08;99523.41;5025580;28;9012;-77
2022/05/01 06:50:46;;;;;;;;;7.80;7.80;;;;;16.49;49.42;99530.34;5047856;28;8847;-78
2022/05/01 06:53:15;;;;;;;;;7.40;7.00;;;;;16.63;48.78;99529.97;5062971;28;8856;-78
2022/05/01 06:55:44;;;;;;;;;7.80;7.00;;;;;16.65;48.97;99529.94;5047310;28;8965;-75
2022/05/01 06:58:18;;;;;;;;;8.20;7.20;;;;;16.73;49.21;99525.38;5011982;28;8862;-75
2022/05/01 07:00:49;;;;;;;;;9.20;8.60;;;;;16.74;48.84;99538.47;5047190;28;8855;-75
2022/05/01 07:03:17;;;;;;;;;7.80;6.80;;;;;16.84;49.06;99533.00;5062804;28;8968;-75
2022/05/01 07:05:48;;;;;;;;;6.00;6.00;;;;;16.82;49.24;99538.31;5013208;28;8842;-76
2022/05/01 07:08:16;;;;;;;;;5.60;5.00;;;;;16.97;48.35;99537.03;5047788;28;8850;-77
2022/05/01 07:10:45;;;;;;;;;6.20;6.20;;;;;17.07;48.18;99529.75;5049575;28;8975;-75
2022/05/01 07:13:13;;;;;;;;;5.80;5.80;;;;;16.99;48.60;99523.81;5049785;28;8904;-76
2022/05/01 07:15:42;;;;;;;;;6.00;6.00;;;;;17.15;48.37;99536.53;5050858;28;9714;-75
2022/05/01 07:18:11;;;;;;;;;5.80;5.80;;;;;17.16;47.93;99534.75;5050889;28;9001;-76
2022/05/01 07:20:40;;;;;;;;;6.20;6.20;;;;;17.29;48.05;99533.50;5050734;28;8957;-76
2022/05/01 07:23:10;;;;;;;;;7.80;7.80;;;;;17.45;47.92;99543.66;5066348;28;8890;-77
2022/05/01 07:25:39;;;;;;;;;8.20;7.40;;;;;17.57;47.59;99539.78;5032558;28;8876;-76
2022/05/01 07:28:07;;;;;;;;;7.00;7.00;;;;;17.64;47.52;99546.59;5050899;28;8862;-75
2022/05/01 07:30:36;;;;;;;;;8.60;8.00;;;;;17.68;47.93;99550.88;5050768;28;8986;-75
2022/05/01 07:33:05;;;;;;;;;6.40;6.00;;;;;17.78;47.49;99544.41;5032662;28;8854;-76
2022/05/01 07:35:33;;;;;;;;;7.00;7.00;;;;;17.97;47.54;99549.16;5049330;28;8846;-74
2022/05/01 07:38:02;;;;;;;;;6.80;6.60;;;;;18.10;47.06;99547.88;5049569;28;9611;-75
2022/05/01 07:40:32;;;;;;;;;9.00;8.00;;;;;18.19;45.92;99549.38;5065943;28;8937;-76
2022/05/01 07:43:01;;;;;;;;;6.40;6.20;;;;;18.24;45.12;99548.31;5049263;28;8909;-76
2022/05/01 07:45:30;;;;;;;;;6.00;5.60;;;;;18.28;45.33;99554.34;5049364;28;8874;-76
2022/05/01 07:48:07;;;;;;;;;7.80;7.80;;;;;18.24;44.91;99552.69;5062450;28;8866;-76
2022/05/01 07:50:35;;;;;;;;;7.40;6.00;;;;;18.28;45.02;99554.34;5050229;28;8854;-76
2022/05/01 07:53:04;;;;;;;;;6.60;6.20;;;;;18.36;44.67;99549.69;5050493;28;8831;-75
2022/05/01 07:55:34;;;;;;;;;6.40;6.40;;;;;18.38;44.39;99547.00;5049134;28;8842;-77
2022/05/01 07:58:03;;;;;;;;;8.00;8.00;;;;;18.48;45.09;99553.69;5048799;28;8862;-76
2022/05/01 08:00:31;;;;;;;;;6.80;6.80;;;;;18.59;44.70;99541.00;5065243;28;8872;-77
2022/05/01 08:05:45;;;;;;;;;7.60;7.40;;;;;18.68;44.19;99545.13;5050752;28;8949;-75
2022/05/01 08:08:14;;;;;;;;;8.00;7.00;;;;;18.77;44.05;99536.00;5032330;28;8851;-77
2022/05/01 08:10:45;;;;;;;;;5.60;5.00;;;;;18.88;43.52;99547.09;5049878;28;8866;-75
2022/05/01 08:13:13;;;;;;;;;6.60;6.60;;;;;18.84;43.58;99545.47;4999028;28;8981;-77
2022/05/01 08:15:42;;;;;;;;;5.40;5.40;;;;;18.95;43.23;99547.75;5065587;28;8866;-76
2022/05/01 08:21:08;;;;;;;;;6.00;6.00;;;;;18.99;41.80;99549.38;5047882;28;8850;-78
2022/05/01 08:23:38;;;;;;;;;6.40;5.00;;;;;19.12;41.54;99553.31;5049565;28;8920;-77
2022/05/01 08:26:10;;;;;;;;;6.00;6.00;;;;;19.18;41.38;99542.50;5048340;28;8872;-76
2022/05/01 08:28:40;;;;;;;;;4.60;4.60;;;;;19.20;40.92;99540.66;5049803;28;8843;-76
2022/05/01 08:31:09;;;;;;;;;8.00;7.00;;;;;19.22;39.72;99545.91;5048238;28;8847;-76
2022/05/01 08:33:38;;;;;;;;;4.60;4.60;;;;;19.37;39.73;99540.03;5049531;28;8850;-76
2022/05/01 08:36:08;;;;;;;;;7.60;5.40;;;;;19.52;39.98;99533.34;5064793;28;8870;-77
2022/05/01 08:38:37;;;;;;;;;5.20;5.20;;;;;19.72;39.19;99540.56;5031724;28;8846;-76
2022/05/01 08:41:07;;;;;;;;;5.40;5.40;;;;;19.92;39.38;99546.84;5049436;28;8855;-74
2022/05/01 08:43:37;;;;;;;;;5.60;5.00;;;;;19.93;38.29;99540.66;5013917;28;8893;-74
2022/05/01 08:46:41;;;;;;;;;4.40;4.40;;;;;20.03;37.85;99537.56;5064608;28;9683;-79
2022/05/01 08:49:10;;;;;;;;;6.20;6.20;;;;;20.27;37.50;99534.88;4971236;28;8884;-75
2022/05/01 08:51:41;;;;;;;;;6.40;6.00;;;;;20.43;36.93;99538.63;4970926;28;8896;-76
2022/05/01 08:54:10;;;;;;;;;10.00;7.60;;;;;20.68;37.49;99540.28;4987305;28;8858;-77
2022/05/01 08:56:41;;;;;;;;;6.00;5.00;;;;;20.86;37.02;99524.50;4971547;28;8948;-77
2022/05/01 08:59:14;;;;;;;;;5.80;5.80;;;;;21.10;36.12;99530.53;5001899;28;8844;-75
2022/05/01 09:01:44;;;;;;;;;6.00;6.00;;;;;21.24;35.68;99538.72;4990493;28;8898;-77
2022/05/01 09:04:14;;;;;;;;;5.40;5.40;;;;;21.42;35.43;99524.66;4958524;28;8860;-74
2022/05/01 09:06:44;;;;;;;;;5.40;5.40;;;;;21.50;34.85;99518.16;4990520;28;9070;-79
2022/05/01 09:09:17;;;;;;;;;4.60;4.60;;;;;21.57;34.01;99525.78;5006746;28;8905;-75
2022/05/01 09:14:35;;;;;;;;;5.40;5.40;;;;;21.63;33.63;99521.97;5007027;28;8839;-76
2022/05/01 09:17:19;;;;;;;;;5.60;5.60;;;;;21.70;33.77;99518.09;4989794;28;8844;-78
2022/05/01 09:19:49;;;;;;;;;5.00;5.00;;;;;21.54;33.11;99515.28;5006231;28;8847;-78
2022/05/01 09:22:21;;;;;;;;;5.00;4.40;;;;;21.42;33.61;99518.50;5006417;28;8918;-76
2022/05/01 09:24:53;;;;;;;;;4.00;4.00;;;;;21.51;33.82;99515.44;5013090;28;8866;-79
2022/05/01 09:27:30;;;;;;;;;4.20;4.20;;;;;21.69;33.11;99512.88;5047379;28;8850;-76
2022/05/01 09:30:11;;;;;;;;;5.60;4.60;;;;;21.67;33.32;99502.31;5063860;28;8897;-76
2022/05/01 09:32:41;;;;;;;;;5.60;5.60;;;;;21.61;33.59;99502.63;5048699;28;8869;-74
2022/05/01 09:35:15;;;;;;;;;3.60;3.60;;;;;21.67;33.46;99502.31;5064650;28;8835;-76
2022/05/01 09:37:44;;;;;;;;;5.00;5.00;;;;;21.56;34.05;99496.66;5047837;28;8846;-78
2022/05/01 09:40:14;;;;;;;;;3.80;3.80;;;;;21.75;34.32;99494.00;5049375;28;8855;-77
2022/05/01 09:42:43;;;;;;;;;6.20;5.60;;;;;21.82;34.14;99494.56;5048377;28;8870;-76
2022/05/01 09:45:14;;;;;;;;;5.40;5.40;;;;;21.89;34.40;99494.19;5026410;28;8937;-75
2022/05/01 09:47:45;;;;;;;;;6.00;6.00;;;;;22.02;34.31;99502.41;5009545;28;8967;-76
2022/05/01 09:50:15;;;;;;;;;5.20;5.20;;;;;21.97;33.57;99491.19;5026139;28;8837;-76
2022/05/01 09:52:58;;;;;;;;;7.60;6.40;;;;;21.89;33.79;99493.31;5009462;28;8880;-75
2022/05/01 09:55:29;;;;;;;;;0.20;0.20;;;;;21.86;34.31;99496.16;5011200;28;9033;-76
2022/05/01 09:58:08;;;;;;;;;6.60;5.80;;;;;21.77;34.36;99487.66;5010512;28;9707;-78
2022/05/01 10:00:41;;;;;;;;;5.60;5.40;;;;;21.76;34.38;99483.31;5045208;28;9033;-76
2022/05/01 10:03:21;;;;;;;;;7.20;7.20;;;;;21.88;34.64;99476.53;5045571;28;8866;-76
2022/05/01 10:05:51;;;;;;;;;8.20;8.20;;;;;21.90;34.91;99490.59;5045704;28;9007;-75
2022/05/01 10:08:21;;;;;;;;;6.60;6.60;;;;;21.93;34.92;99484.28;5046243;28;8834;-75
2022/05/01 10:10:51;;;;;;;;;7.40;7.40;;;;;22.02;34.51;99481.16;5012897;28;8835;-75
2022/05/01 10:13:23;;;;;;;;;8.60;8.20;;;;;22.03;34.66;99482.91;5029238;28;8877;-76
2022/05/01 10:16:11;;;;;;;;;8.00;6.40;;;;;22.07;34.70;99487.13;5046104;28;8850;-75
2022/05/01 10:18:48;;;;;;;;;8.40;8.40;;;;;22.03;34.67;99476.75;5046666;28;8878;-77
2022/05/01 10:21:37;;;;;;;;;7.20;6.80;;;;;22.14;34.65;99472.63;5047260;28;8948;-75
2022/05/01 10:24:08;;;;;;;;;7.80;5.80;;;;;22.28;34.70;99471.94;5048536;28;8863;-75
2022/05/01 10:26:40;;;;;;;;;7.20;7.20;;;;;22.30;34.42;99474.53;5047935;28;8839;-77
2022/05/01 10:29:29;;;;;;;;;6.80;6.00;;;;;22.30;34.31;99456.78;5013385;28;8866;-75
2022/05/01 10:32:22;;;;;;;;;6.80;6.80;;;;;22.46;34.72;99462.22;5046684;28;8884;-77
2022/05/01 10:35:29;;;;;;;;;6.80;6.80;;;;;22.58;34.56;99461.56;5047742;28;8857;-76
2022/05/01 10:38:11;;;;;;;;;6.80;6.60;;;;;22.73;34.20;99462.56;5047458;28;8965;-76
2022/05/01 10:40:43;;;;;;;;;8.80;7.80;;;;;22.90;34.24;99459.03;5046221;28;8870;-75
2022/05/01 10:43:30;;;;;;;;;9.80;7.00;;;;;23.11;33.64;99458.88;5058583;28;8879;-79
2022/05/01 10:46:00;;;;;;;;;7.40;7.40;;;;;23.26;33.34;99446.53;5071572;28;8847;-78
2022/05/01 10:48:32;;;;;;;;;7.00;7.00;;;;;23.41;33.40;99451.03;5071098;28;8856;-76
2022/05/01 10:51:52;;;;;;;;;6.80;6.80;;;;;23.59;33.52;99440.28;5070731;28;8874;-77
2022/05/01 10:54:35;;;;;;;;;6.20;6.20;;;;;23.67;33.15;99433.59;5009956;28;8844;-78
2022/05/01 10:57:13;;;;;;;;;7.00;6.40;;;;;23.76;33.25;99437.53;4958233;28;8931;-77
2022/05/01 10:59:46;;;;;;;;;8.00;8.00;;;;;23.88;32.94;99428.88;4989993;28;8961;-77
2022/05/01 11:02:41;;;;;;;;;7.00;7.00;;;;;24.00;32.74;99424.66;4990117;28;9628;-77
2022/05/01 11:05:32;;;;;;;;;6.80;6.80;;;;;23.77;32.70;99412.63;4934348;28;8870;-78
2022/05/01 11:08:02;;;;;;;;;6.00;6.00;;;;;23.73;32.58;99419.94;4918510;28;8874;-76
2022/05/01 11:10:31;;;;;;;;;5.80;5.40;;;;;23.77;32.15;99419.75;4934821;28;8859;-78
2022/05/01 11:13:02;;;;;;;;;3.00;3.00;;;;;23.85;32.33;99412.22;4950233;28;8950;-77
2022/05/01 11:15:31;;;;;;;;;7.20;5.00;;;;;24.02;32.25;99419.22;4934301;28;9660;-77
2022/05/01 11:18:00;;;;;;;;;4.60;4.60;;;;;24.27;31.50;99408.88;4887540;28;9025;-76
2022/05/01 11:20:36;;;;;;;;;4.80;4.80;;;;;24.38;30.95;99404.69;4918671;28;8866;-76
2022/05/01 11:23:35;;;;;;;;;5.80;5.80;;;;;24.54;30.54;99399.31;4902599;28;8901;-78
2022/05/01 11:26:08;;;;;;;;;6.80;6.80;;;;;24.71;29.86;99409.81;4874419;29;8941;-76
2022/05/01 11:28:52;;;;;;;;;6.40;6.40;;;;;24.60;29.72;99393.63;4897255;28;8870;-77
2022/05/01 11:31:57;;;;;;;;;5.00;5.00;;;;;24.58;30.45;99395.53;4949972;28;8866;-77
2022/05/01 11:34:53;;;;;;;;;5.40;5.40;;;;;24.62;30.21;99383.72;4950057;28;8862;-77
2022/05/01 11:37:24;;;;;;;;;6.00;5.00;;;;;24.65;29.78;99383.50;4950184;28;9775;-79
2022/05/01 11:40:23;;;;;;;;;5.40;4.40;;;;;24.77;29.17;99390.78;4952934;28;8876;-76
2022/05/01 11:42:52;;;;;;;;;6.00;5.60;;;;;24.93;28.39;99379.16;5005385;28;8870;-76
2022/05/01 11:45:23;;;;;;;;;4.80;4.80;;;;;25.03;28.85;99375.81;4995635;28;8856;-77
2022/05/01 11:47:52;;;;;;;;;4.80;4.80;;;;;25.18;28.39;99375.78;4992896;28;8930;-77
2022/05/01 11:50:24;;;;;;;;;6.20;6.20;;;;;25.41;28.43;99377.03;4992104;28;8889;-77
2022/05/01 11:52:57;;;;;;;;;6.40;5.20;;;;;25.36;27.45;99379.13;5007896;28;8982;-77
2022/05/01 12:03:41;;;;;;;;;6.00;4.80;;;;;25.72;27.33;99370.50;5059548;28;8879;-78
2022/05/01 12:06:10;;;;;;;;;3.80;3.80;;;;;25.91;26.25;99359.47;5073083;28;9843;-78
2022/05/01 12:08:52;;;;;;;;;5.00;5.00;;;;;26.12;25.98;99359.00;5054207;28;8888;-79
2022/05/01 12:11:28;;;;;;;;;6.00;6.00;;;;;26.39;25.73;99359.81;5054178;28;8846;-77
2022/05/01 12:14:09;;;;;;;;;3.80;3.80;;;;;26.63;25.51;99345.69;5048572;28;8870;-78
2022/05/01 12:16:37;;;;;;;;;4.80;4.80;;;;;26.70;24.45;99348.81;5032044;28;8870;-78
2022/05/01 12:19:06;;;;;;;;;5.00;5.00;;;;;26.61;25.11;99334.25;5049644;28;8870;-78
2022/05/01 12:21:35;;;;;;;;;5.00;5.00;;;;;26.74;24.76;99335.09;5050356;28;8831;-78
2022/05/01 12:24:08;;;;;;;;;5.40;5.40;;;;;26.85;24.86;99337.00;5056636;28;8850;-78
2022/05/01 12:26:39;;;;;;;;;5.80;5.80;;;;;27.18;24.23;99330.19;5032235;28;8901;-78
2022/05/01 12:29:10;;;;;;;;;4.40;4.40;;;;;27.18;24.34;99320.34;5031379;28;8871;-76
2022/05/01 12:32:06;;;;;;;;;5.40;5.00;;;;;27.15;24.49;99320.56;5050206;28;8913;-74
2022/05/01 12:34:38;;;;;;;;;6.00;5.00;;;;;27.32;24.04;99318.50;5032343;28;8847;-77